KGGG/GGG METAR and TAF weather

Enter ICAO airport designator
Station Type Date Time Source
KGGG METAR 2020/04/06 13:53 UTC NOAA

KGGG 061353Z 13003KT 10SM SCT100 17/15 A3005 RMK AO2 SLP173 T01720150


Station Type Date Time Source
KGGG Decoded METAR 2020/04/06 13:53 UTC NOAA

LONGVIEW GREGG COUNTY AIRPORT , TX, United States (KGGG) 32-23N 094-43W 107M
Apr 06, 2020 - 09:53 AM EDT / 2020.04.06 1353 UTC
Wind: from the SE (130 degrees) at 3 MPH (3 KT):0
Visibility: 10 mile(s):0
Sky conditions: partly cloudy
Temperature: 63.0 F (17.2 C)
Dew Point: 59.0 F (15.0 C)
Relative Humidity: 86%
Pressure (altimeter): 30.05 in. Hg (1017 hPa)
ob: KGGG 061353Z 13003KT 10SM SCT100 17/15 A3005 RMK AO2 SLP173 T01720150
cycle: 14

Station Type Date Time Source
KGGG TAF 2020/04/06 12:22 UTC NOAA

TAF KGGG 061120Z 0612/0712 00000KT P6SM SCT040
TEMPO 0612/0616 4SM BR BKN015
FM061600 17006KT P6SM OVC050
FM070300 18005KT P6SM VCSH OVC030
FM070600 18008KT P6SM OVC010

Example: see airport list